Time;durP1;ratioP1;P1;durP2;ratioP2;P2;SDS_P1;SDS_P2;PMS_P1;PMS_P2;Temp;Humidity;BMP_temperature;BMP_pressure;BME280_temperature;BME280_humidity;BME280_pressure;Samples;Min_cycle;Max_cycle;Signal;HPM_P1;HPM_P2
2023/07/01 00:01:55;;;;;;;4.97;1.13;;;;;;;15.15;93.06;99779.25;5071306;28;20052;-43
2023/07/01 00:04:22;;;;;;;3.22;1.30;;;;;;;15.10;92.97;99782.44;5070837;28;20044;-43
2023/07/01 00:06:49;;;;;;;4.30;0.90;;;;;;;15.09;93.02;99778.03;5071202;28;20044;-42
2023/07/01 00:09:15;;;;;;;1.67;0.95;;;;;;;15.06;93.09;99786.44;5070647;28;20040;-44
2023/07/01 00:11:42;;;;;;;4.15;1.08;;;;;;;15.02;93.07;99797.56;5070305;28;20520;-42
2023/07/01 00:14:09;;;;;;;4.32;1.33;;;;;;;14.99;93.10;99789.19;5070678;28;20376;-42
2023/07/01 00:16:36;;;;;;;3.85;0.90;;;;;;;14.95;93.38;99778.06;5070722;28;20075;-42
2023/07/01 00:19:03;;;;;;;3.17;1.00;;;;;;;14.95;93.44;99786.44;5070592;28;20048;-44
2023/07/01 00:21:30;;;;;;;9.00;1.30;;;;;;;14.89;93.41;99781.63;5070870;28;20044;-43
2023/07/01 00:23:56;;;;;;;7.63;2.25;;;;;;;14.88;93.46;99786.41;5052891;28;20102;-43
2023/07/01 00:26:23;;;;;;;5.47;1.02;;;;;;;14.84;93.38;99782.84;5070904;28;20468;-43
2023/07/01 00:28:50;;;;;;;3.08;1.08;;;;;;;14.84;93.43;99779.25;5070613;28;20041;-42
2023/07/01 00:31:17;;;;;;;4.68;0.90;;;;;;;14.87;93.50;99784.84;5071118;28;20395;-42
2023/07/01 00:33:44;;;;;;;3.00;1.30;;;;;;;14.89;93.40;99784.41;5070468;28;20048;-42
2023/07/01 00:36:10;;;;;;;8.63;1.30;;;;;;;14.82;93.15;99790.81;5036601;28;20468;-42
2023/07/01 00:38:37;;;;;;;4.38;1.98;;;;;;;14.81;93.32;99791.97;5070612;28;20044;-44
2023/07/01 00:41:04;;;;;;;7.57;1.92;;;;;;;14.80;93.18;99782.00;5070894;28;20040;-41
2023/07/01 00:43:30;;;;;;;5.75;1.50;;;;;;;14.80;93.24;99782.00;5071628;28;20494;-43
2023/07/01 00:45:57;;;;;;;7.13;1.10;;;;;;;14.81;93.07;99785.59;5074588;28;20052;-42
2023/07/01 00:48:26;;;;;;;5.68;1.63;;;;;;;14.81;93.11;99777.25;5074084;28;20044;-42
2023/07/01 00:50:53;;;;;;;3.25;1.15;;;;;;;14.80;93.11;99793.16;5074872;28;20083;-43
2023/07/01 00:53:21;;;;;;;5.05;1.15;;;;;;;14.79;92.91;99794.38;5074893;28;20078;-42
2023/07/01 00:55:48;;;;;;;5.78;0.93;;;;;;;14.75;92.91;99781.63;5074433;28;20052;-42
2023/07/01 00:58:15;;;;;;;6.45;0.98;;;;;;;14.72;92.95;99796.38;5074772;28;20052;-44
2023/07/01 01:00:43;;;;;;;5.57;1.52;;;;;;;14.69;92.80;99786.81;5073985;28;20076;-46
2023/07/01 01:03:35;;;;;;;4.50;0.93;;;;;;;14.68;93.08;99789.97;5057046;28;20491;-44
2023/07/01 01:06:09;;;;;;;2.20;1.10;;;;;;;14.71;92.97;99784.41;5074892;28;20078;-43
2023/07/01 01:09:11;;;;;;;3.15;0.98;;;;;;;14.69;92.81;99786.81;5073902;28;20048;-42
2023/07/01 01:11:43;;;;;;;4.82;1.33;;;;;;;14.74;92.70;99783.63;5071584;28;20060;-43
2023/07/01 01:14:12;;;;;;;5.60;1.42;;;;;;;14.75;92.60;99785.19;5055434;28;20072;-43
2023/07/01 01:16:40;;;;;;;4.97;1.27;;;;;;;14.79;92.67;99785.22;5067813;28;20474;-47
2023/07/01 01:19:21;;;;;;;3.38;1.25;;;;;;;14.74;92.53;99783.63;5061344;28;20032;-43
2023/07/01 01:21:55;;;;;;;4.97;0.82;;;;;;;14.74;92.53;99777.25;5056285;28;20481;-45
2023/07/01 01:24:24;;;;;;;2.22;0.80;;;;;;;14.69;92.35;99781.22;5074109;28;20086;-43
2023/07/01 01:26:53;;;;;;;2.95;0.80;;;;;;;14.68;92.43;99782.41;5073950;28;20045;-43
2023/07/01 01:29:20;;;;;;;5.43;0.98;;;;;;;14.69;92.46;99786.81;5074082;28;20049;-43
2023/07/01 01:31:47;;;;;;;2.38;0.80;;;;;;;14.65;92.36;99777.63;5073964;28;20068;-43
2023/07/01 01:34:13;;;;;;;3.05;0.90;;;;;;;14.60;92.45;99780.81;5073915;28;20041;-43
2023/07/01 01:36:50;;;;;;;5.20;1.13;;;;;;;14.59;92.56;99787.56;5073346;28;20746;-43
2023/07/01 01:39:21;;;;;;;2.58;0.43;;;;;;;14.58;92.62;99786.00;5073533;28;20139;-43
2023/07/01 01:41:54;;;;;;;3.40;0.68;;;;;;;14.59;92.47;99793.94;5061346;28;20141;-43
2023/07/01 01:44:28;;;;;;;1.25;0.63;;;;;;;14.53;92.30;99789.94;5074058;28;20055;-47
2023/07/01 01:46:56;;;;;;;2.75;0.70;;;;;;;14.53;92.37;99797.53;5073917;28;20497;-43
2023/07/01 01:49:24;;;;;;;4.43;0.50;;;;;;;14.49;92.53;99791.13;5073484;28;20079;-42
2023/07/01 01:51:53;;;;;;;2.78;0.38;;;;;;;14.44;92.77;99799.88;5073740;28;20045;-43
2023/07/01 01:54:21;;;;;;;5.97;2.30;;;;;;;14.41;93.24;99795.09;5055463;28;20044;-43
2023/07/01 01:56:47;;;;;;;1.35;0.40;;;;;;;14.37;93.32;99802.66;5072626;28;20469;-43
2023/07/01 01:59:15;;;;;;;5.18;0.57;;;;;;;14.31;93.28;99799.44;5056047;28;20123;-43
2023/07/01 02:01:41;;;;;;;1.60;0.57;;;;;;;14.22;93.50;99800.94;5073276;28;20063;-43
2023/07/01 02:04:08;;;;;;;0.32;0.32;;;;;;;14.18;93.59;99792.63;5073203;28;20043;-43
2023/07/01 02:06:35;;;;;;;1.27;0.40;;;;;;;14.15;93.97;99806.50;5073420;28;20048;-43
2023/07/01 02:09:04;;;;;;;0.90;0.50;;;;;;;14.11;94.11;99795.34;5072958;28;20482;-45
2023/07/01 02:11:30;;;;;;;1.63;0.30;;;;;;;14.09;94.41;99799.72;5073628;28;20067;-43
2023/07/01 02:13:57;;;;;;;1.55;0.25;;;;;;;14.08;94.61;99814.84;5071423;28;20037;-43
2023/07/01 02:16:24;;;;;;;3.70;0.57;;;;;;;14.07;94.75;99811.25;5072971;28;20079;-46
2023/07/01 02:18:50;;;;;;;2.40;0.30;;;;;;;14.09;94.81;99799.72;5072304;28;20048;-42
2023/07/01 02:21:17;;;;;;;1.20;0.22;;;;;;;14.04;94.72;99807.25;5073032;28;20053;-43
2023/07/01 02:23:44;;;;;;;2.80;0.20;;;;;;;13.98;95.02;99808.00;5073175;28;20048;-42
2023/07/01 02:26:11;;;;;;;1.42;0.20;;;;;;;13.95;95.17;99806.81;5072361;28;20040;-43
2023/07/01 02:28:37;;;;;;;5.28;1.00;;;;;;;13.93;95.34;99811.97;5072884;28;20048;-43
2023/07/01 02:31:04;;;;;;;2.08;0.30;;;;;;;13.92;95.43;99807.63;5072816;28;20597;-43
2023/07/01 02:33:31;;;;;;;2.40;0.40;;;;;;;13.88;95.65;99819.91;5072661;28;20053;-45
2023/07/01 02:35:57;;;;;;;4.50;1.85;;;;;;;13.86;95.70;99814.75;5072676;28;20044;-45
2023/07/01 02:38:24;;;;;;;5.97;0.52;;;;;;;13.86;95.39;99808.38;5072443;28;20049;-43
2023/07/01 02:40:51;;;;;;;0.90;0.30;;;;;;;13.88;95.62;99798.44;5072469;28;20040;-43
2023/07/01 02:43:17;;;;;;;0.52;0.30;;;;;;;13.89;95.80;99805.63;5072012;28;20063;-43
2023/07/01 02:45:44;;;;;;;1.35;0.32;;;;;;;13.81;95.60;99795.63;5071449;28;20048;-42
2023/07/01 02:48:11;;;;;;;2.40;0.43;;;;;;;13.79;95.69;99797.97;5072456;28;20127;-43
2023/07/01 02:50:38;;;;;;;2.08;0.60;;;;;;;13.77;95.65;99803.16;5072774;28;20048;-42
2023/07/01 02:53:04;;;;;;;4.43;0.60;;;;;;;13.74;95.81;99792.78;5072381;28;20394;-42
2023/07/01 02:55:31;;;;;;;3.92;1.02;;;;;;;13.73;96.01;99796.78;5071974;28;20045;-43
2023/07/01 02:57:58;;;;;;;2.30;1.63;;;;;;;13.74;96.12;99803.94;5072508;28;20444;-42
2023/07/01 03:02:53;;;;;;;1.73;0.77;;;;;;;13.71;96.12;99801.94;4943256;22;20053;-43
2023/07/01 03:05:23;;;;;;;2.78;0.50;;;;;;;13.69;96.15;99801.50;5011905;28;20050;-42
2023/07/01 03:07:51;;;;;;;5.15;1.88;;;;;;;13.67;96.39;99797.53;5012750;28;20050;-43
2023/07/01 03:10:18;;;;;;;1.88;0.52;;;;;;;13.62;96.53;99795.91;5012301;28;20077;-42
2023/07/01 03:12:45;;;;;;;3.55;0.80;;;;;;;13.60;96.62;99798.31;5012016;28;20038;-42
2023/07/01 03:15:14;;;;;;;1.13;0.47;;;;;;;13.63;96.71;99799.50;5011569;28;20530;-42
2023/07/01 03:17:41;;;;;;;1.77;0.47;;;;;;;13.65;96.47;99784.03;5012644;28;20082;-42
2023/07/01 03:20:20;;;;;;;5.13;0.57;;;;;;;13.63;96.46;99789.19;5012248;28;20050;-42
2023/07/01 03:22:46;;;;;;;3.67;0.47;;;;;;;13.67;96.60;99786.41;5012357;28;20050;-42
2023/07/01 03:25:13;;;;;;;6.38;0.80;;;;;;;13.65;96.50;99789.59;5010561;28;20116;-43
2023/07/01 03:27:40;;;;;;;5.95;0.73;;;;;;;13.62;96.45;99784.78;5012280;28;20042;-44
2023/07/01 03:30:13;;;;;;;3.95;0.50;;;;;;;13.58;96.68;99789.53;5012039;28;20049;-42
2023/07/01 03:32:41;;;;;;;5.53;0.60;;;;;;;13.51;96.64;99783.94;5012378;28;20495;-44
2023/07/01 03:35:09;;;;;;;1.63;0.50;;;;;;;13.51;96.64;99786.72;5011927;28;20052;-42
2023/07/01 03:37:40;;;;;;;1.50;0.50;;;;;;;13.48;96.88;99784.69;5011879;28;20049;-42
2023/07/01 03:40:11;;;;;;;5.40;0.70;;;;;;;13.52;96.89;99785.53;5011291;28;20104;-42
2023/07/01 03:42:39;;;;;;;6.38;0.73;;;;;;;13.54;97.21;99788.72;5012212;28;20057;-42
2023/07/01 03:45:07;;;;;;;0.73;0.50;;;;;;;13.55;97.09;99798.66;5011671;28;20038;-43
2023/07/01 03:47:35;;;;;;;2.22;0.80;;;;;;;13.57;96.96;99793.50;5010885;28;20107;-43
2023/07/01 03:50:02;;;;;;;2.75;0.47;;;;;;;13.60;96.98;99791.94;5011780;28;20096;-43
2023/07/01 03:52:28;;;;;;;1.35;0.90;;;;;;;13.62;96.76;99790.34;5011623;28;20571;-42
2023/07/01 03:54:56;;;;;;;3.50;1.45;;;;;;;13.60;96.83;99791.94;5011002;28;20052;-43
2023/07/01 03:57:23;;;;;;;2.33;0.70;;;;;;;13.60;96.65;99800.28;5011581;28;20050;-42
2023/07/01 03:59:50;;;;;;;3.47;0.50;;;;;;;13.61;96.61;99804.66;5012122;28;20148;-43
2023/07/01 04:02:17;;;;;;;3.22;0.57;;;;;;;13.60;96.56;99798.31;5011040;28;20068;-43
2023/07/01 04:04:43;;;;;;;3.05;0.57;;;;;;;13.58;96.61;99805.44;5011651;28;20042;-43
2023/07/01 04:07:10;;;;;;;4.18;0.55;;;;;;;13.57;96.57;99803.84;5010733;28;20129;-43
2023/07/01 04:09:37;;;;;;;1.38;0.60;;;;;;;13.58;96.65;99792.31;5011490;28;20492;-43
2023/07/01 04:12:05;;;;;;;4.28;0.47;;;;;;;13.57;96.44;99801.84;5011519;28;20064;-43
2023/07/01 04:14:31;;;;;;;4.05;1.30;;;;;;;13.56;96.62;99808.59;5011342;28;20467;-43
2023/07/01 04:16:58;;;;;;;2.83;0.52;;;;;;;13.53;96.74;99798.22;5011305;28;20107;-43
2023/07/01 04:19:25;;;;;;;4.75;0.75;;;;;;;13.54;96.65;99799.03;5011215;28;20042;-42
2023/07/01 04:21:51;;;;;;;5.30;1.85;;;;;;;13.54;96.91;99805.41;5011347;28;20060;-43
2023/07/01 04:24:18;;;;;;;5.15;0.52;;;;;;;13.56;96.76;99791.09;5010428;28;20084;-42
2023/07/01 04:26:45;;;;;;;1.55;0.40;;;;;;;13.55;96.97;99787.53;5011336;28;20066;-42
2023/07/01 04:29:12;;;;;;;1.83;0.52;;;;;;;13.57;96.93;99793.50;5011367;28;20077;-44
2023/07/01 04:31:39;;;;;;;2.58;0.50;;;;;;;13.58;96.76;99789.53;5011631;28;20034;-42
2023/07/01 04:34:06;;;;;;;3.90;0.47;;;;;;;13.63;96.93;99799.50;5011386;28;20100;-43
2023/07/01 04:36:32;;;;;;;3.53;0.85;;;;;;;13.65;96.65;99794.34;5011116;28;20042;-42
2023/07/01 04:38:59;;;;;;;5.72;0.90;;;;;;;13.68;96.64;99790.78;5010565;28;20073;-44
2023/07/01 04:41:26;;;;;;;0.32;0.30;;;;;;;13.70;96.55;99796.75;5011264;28;20050;-43
2023/07/01 04:43:52;;;;;;;1.88;0.52;;;;;;;13.70;96.57;99800.34;5011264;28;20038;-43
2023/07/01 04:46:19;;;;;;;1.33;0.40;;;;;;;13.70;96.65;99803.13;4992221;28;20495;-43
2023/07/01 04:48:46;;;;;;;0.80;0.38;;;;;;;13.71;96.59;99807.50;5011170;28;20050;-42
2023/07/01 04:51:13;;;;;;;3.03;1.85;;;;;;;13.70;96.56;99808.69;5011116;28;20042;-43
2023/07/01 04:53:40;;;;;;;1.98;0.68;;;;;;;13.68;96.36;99813.84;5011017;28;20159;-43
2023/07/01 04:56:06;;;;;;;3.40;1.27;;;;;;;13.73;96.66;99821.00;5011014;28;20046;-43
2023/07/01 04:58:34;;;;;;;3.08;0.68;;;;;;;13.73;96.46;99813.47;5011048;28;20046;-42
2023/07/01 05:01:01;;;;;;;1.30;0.57;;;;;;;13.75;96.44;99810.28;5009618;28;20144;-43
2023/07/01 05:03:27;;;;;;;20.85;3.22;;;;;;;13.78;96.73;99817.88;5011053;28;20054;-42
2023/07/01 05:05:54;;;;;;;1.60;0.50;;;;;;;13.79;96.65;99809.13;5010225;28;20073;-44
2023/07/01 05:08:21;;;;;;;3.70;0.60;;;;;;;13.80;96.79;99824.63;5006403;28;20050;-42
2023/07/01 05:10:47;;;;;;;1.52;0.60;;;;;;;13.82;96.61;99816.69;5010789;28;20052;-46
2023/07/01 05:13:15;;;;;;;2.90;0.60;;;;;;;13.86;96.93;99828.66;5011041;28;20088;-44
2023/07/01 05:15:41;;;;;;;1.13;0.30;;;;;;;13.87;96.81;99827.44;5010826;28;20380;-43
2023/07/01 05:18:08;;;;;;;1.15;0.38;;;;;;;13.90;96.58;99837.78;5010925;28;20124;-43
2023/07/01 05:20:35;;;;;;;3.20;0.45;;;;;;;13.95;96.61;99831.84;5010957;28;20107;-43
2023/07/01 05:23:01;;;;;;;4.40;0.77;;;;;;;14.00;96.51;99827.94;5010923;28;20130;-43
2023/07/01 05:25:28;;;;;;;3.22;0.98;;;;;;;14.04;96.30;99821.19;5010642;28;20050;-42
2023/07/01 05:27:59;;;;;;;4.20;0.52;;;;;;;14.08;96.21;99820.41;5009323;28;20096;-43
2023/07/01 05:30:25;;;;;;;2.88;0.60;;;;;;;14.09;96.10;99830.34;5012245;28;20561;-42
2023/07/01 05:32:52;;;;;;;4.05;0.60;;;;;;;14.06;95.99;99837.47;5014787;28;20500;-43
2023/07/01 05:35:19;;;;;;;6.38;1.83;;;;;;;14.02;95.86;99833.91;5014076;28;20492;-42
2023/07/01 05:37:46;;;;;;;7.15;0.85;;;;;;;14.06;96.02;99833.91;5005605;28;20050;-43
2023/07/01 05:40:13;;;;;;;3.17;1.00;;;;;;;14.09;96.06;99830.34;5027281;28;20116;-42
2023/07/01 05:42:39;;;;;;;5.20;0.65;;;;;;;14.13;95.93;99836.72;5014382;28;20565;-44
2023/07/01 05:45:06;;;;;;;1.70;0.47;;;;;;;14.18;95.80;99833.56;5005862;28;20049;-43
2023/07/01 05:47:33;;;;;;;6.63;2.17;;;;;;;14.21;95.29;99839.16;4996652;28;20046;-43
2023/07/01 05:50:00;;;;;;;1.27;0.43;;;;;;;14.26;95.40;99852.69;5012726;28;20057;-42
2023/07/01 05:52:26;;;;;;;1.48;0.30;;;;;;;14.38;95.43;99835.66;5014104;28;20124;-43
2023/07/01 05:54:53;;;;;;;2.63;0.20;;;;;;;14.53;95.29;99853.22;5014002;28;20042;-43
2023/07/01 05:57:20;;;;;;;2.28;0.30;;;;;;;14.62;94.65;99848.06;5013840;28;20129;-42
2023/07/01 05:59:49;;;;;;;1.15;0.40;;;;;;;14.61;94.33;99840.91;5013788;28;20136;-42
2023/07/01 06:02:16;;;;;;;0.95;0.30;;;;;;;14.60;94.28;99844.88;5013293;28;20085;-43
2023/07/01 06:04:43;;;;;;;2.90;0.50;;;;;;;14.54;94.36;99835.31;5014058;28;20041;-43
2023/07/01 06:07:09;;;;;;;1.20;0.30;;;;;;;14.53;94.68;99839.31;5012877;28;20034;-43
2023/07/01 06:09:36;;;;;;;2.03;0.60;;;;;;;14.56;94.61;99846.88;5013174;28;20503;-43
2023/07/01 06:12:03;;;;;;;2.50;0.77;;;;;;;14.56;94.83;99841.31;5013498;28;20478;-42
2023/07/01 06:14:30;;;;;;;1.17;0.80;;;;;;;14.57;94.72;99854.03;5013925;28;20492;-44
2023/07/01 06:16:57;;;;;;;2.22;0.60;;;;;;;14.57;94.71;99846.47;5012059;28;20476;-42
2023/07/01 06:19:23;;;;;;;1.27;0.55;;;;;;;14.57;94.86;99846.47;5013359;28;20046;-43
2023/07/01 06:21:50;;;;;;;1.70;0.60;;;;;;;14.51;94.52;99853.59;5013370;28;20484;-44
2023/07/01 06:24:17;;;;;;;1.70;0.68;;;;;;;14.50;94.89;99862.38;5013721;28;20037;-43
2023/07/01 06:26:44;;;;;;;0.85;0.68;;;;;;;14.52;95.05;99868.34;5011101;28;20050;-42
2023/07/01 06:29:10;;;;;;;1.40;0.70;;;;;;;14.50;95.10;99865.16;4994149;28;20073;-44
2023/07/01 06:31:37;;;;;;;3.00;0.82;;;;;;;14.52;95.27;99868.34;5013073;28;20129;-42
2023/07/01 06:34:12;;;;;;;3.17;1.60;;;;;;;14.56;95.58;99871.94;5013319;28;20038;-42
2023/07/01 06:36:39;;;;;;;0.98;0.52;;;;;;;14.60;95.68;99856.03;5013146;28;20050;-43
2023/07/01 06:39:06;;;;;;;2.88;0.63;;;;;;;14.62;95.44;99859.22;5013121;28;20046;-44
2023/07/01 06:41:33;;;;;;;1.75;0.50;;;;;;;14.67;95.55;99861.59;5012434;28;20848;-43
2023/07/01 06:44:00;;;;;;;2.53;0.40;;;;;;;14.75;95.73;99868.78;5013047;28;20108;-42
2023/07/01 06:46:28;;;;;;;3.55;0.65;;;;;;;14.82;95.13;99870.81;5013037;28;20046;-43
2023/07/01 06:48:55;;;;;;;6.40;0.70;;;;;;;14.79;95.14;99872.41;5011291;28;20507;-44
2023/07/01 06:51:22;;;;;;;1.83;0.70;;;;;;;14.80;95.28;99870.41;5012722;28;20133;-43
2023/07/01 06:53:49;;;;;;;3.17;0.98;;;;;;;14.72;94.82;99874.38;5012826;28;20041;-43
2023/07/01 06:56:15;;;;;;;1.30;0.80;;;;;;;14.65;94.90;99875.13;5013064;28;20049;-43
2023/07/01 06:58:42;;;;;;;2.13;0.52;;;;;;;14.62;95.00;99870.34;5012700;28;20046;-43
2023/07/01 07:01:09;;;;;;;2.47;0.57;;;;;;;14.60;95.09;99873.53;5012422;28;20057;-43
2023/07/01 07:03:39;;;;;;;2.53;0.55;;;;;;;14.60;95.05;99864.38;5012923;28;20050;-42
2023/07/01 07:06:06;;;;;;;1.63;0.55;;;;;;;14.61;94.99;99852.06;5012581;28;20080;-43
2023/07/01 07:08:33;;;;;;;3.72;0.80;;;;;;;14.71;95.18;99854.06;5013002;28;20443;-43
2023/07/01 07:11:00;;;;;;;2.53;0.50;;;;;;;14.91;94.91;99855.28;5010663;28;20463;-43
2023/07/01 07:13:27;;;;;;;1.75;0.95;;;;;;;15.06;94.33;99854.09;5012696;28;20049;-43
2023/07/01 07:15:53;;;;;;;1.27;0.68;;;;;;;15.17;94.12;99846.56;5012476;28;20041;-42
2023/07/01 07:18:20;;;;;;;0.93;0.63;;;;;;;15.34;94.19;99844.16;5012532;28;20081;-44
2023/07/01 07:20:47;;;;;;;2.22;0.77;;;;;;;15.53;94.34;99861.34;5012339;28;20133;-44
2023/07/01 07:23:14;;;;;;;1.73;0.82;;;;;;;15.70;94.32;99865.31;5012236;28;20054;-43
2023/07/01 07:25:41;;;;;;;1.23;0.90;;;;;;;15.92;94.19;99855.69;5009836;28;20100;-46
2023/07/01 07:28:08;;;;;;;3.22;0.90;;;;;;;16.04;93.45;99851.66;5011509;28;20042;-44
2023/07/01 07:30:34;;;;;;;3.33;0.85;;;;;;;16.14;93.66;99842.44;5007312;28;20046;-44
2023/07/01 07:33:01;;;;;;;3.15;1.15;;;;;;;16.40;94.83;99834.38;5012016;28;20041;-44
2023/07/01 07:35:28;;;;;;;6.00;1.88;;;;;;;16.68;95.43;99855.03;5012185;28;20060;-45
2023/07/01 07:37:55;;;;;;;3.83;1.65;;;;;;;16.85;95.96;99862.50;5011988;28;20125;-44
2023/07/01 07:40:22;;;;;;;3.58;1.55;;;;;;;17.04;96.41;99856.38;5012099;28;20073;-44
2023/07/01 07:42:53;;;;;;;3.40;2.05;;;;;;;17.38;98.62;99873.31;5016799;28;20120;-42
2023/07/01 07:45:21;;;;;;;5.13;1.83;;;;;;;17.84;100.00;99875.72;5011848;28;20133;-42
2023/07/01 07:47:47;;;;;;;7.75;2.30;;;;;;;18.31;98.73;99871.19;5011995;28;20046;-44
2023/07/01 07:50:14;;;;;;;7.03;2.80;;;;;;;18.48;95.58;99876.59;5011897;28;20053;-42
2023/07/01 07:52:41;;;;;;;5.50;2.80;;;;;;;18.62;92.39;99886.84;5011388;28;20050;-42
2023/07/01 07:55:08;;;;;;;11.32;3.53;;;;;;;18.52;87.78;99882.19;5011750;28;20077;-43
2023/07/01 07:57:36;;;;;;;6.90;3.60;;;;;;;18.25;84.91;99891.28;5011833;28;20053;-42
2023/07/01 08:00:03;;;;;;;6.10;2.97;;;;;;;18.05;83.02;99909.13;5011486;28;20076;-42
2023/07/01 08:02:30;;;;;;;8.10;4.00;;;;;;;17.74;81.72;99887.81;5010565;28;20491;-43
2023/07/01 08:04:57;;;;;;;8.52;3.97;;;;;;;17.52;81.67;99888.00;5008737;28;20424;-43
2023/07/01 08:07:23;;;;;;;6.50;3.42;;;;;;;18.17;82.04;99891.78;5011508;28;20046;-43
2023/07/01 08:09:50;;;;;;;8.05;4.53;;;;;;;19.12;79.13;99904.59;4994192;28;20065;-44
2023/07/01 08:12:17;;;;;;;9.60;4.00;;;;;;;19.99;76.78;99893.13;5011302;28;20037;-45
2023/07/01 08:14:44;;;;;;;7.53;4.05;;;;;;;20.73;74.33;99898.53;5011537;28;20073;-43
2023/07/01 08:17:11;;;;;;;11.43;4.93;;;;;;;21.38;72.04;99905.13;5010339;28;20045;-44
2023/07/01 08:19:37;;;;;;;7.97;4.43;;;;;;;22.03;69.94;99903.13;5011439;28;20642;-43
2023/07/01 08:22:04;;;;;;;7.05;4.40;;;;;;;22.52;67.61;99909.41;5011664;28;20491;-45
2023/07/01 08:24:31;;;;;;;10.20;5.55;;;;;;;22.66;66.47;99903.38;5011249;28;20093;-44
2023/07/01 08:26:59;;;;;;;8.70;4.75;;;;;;;23.05;65.09;99905.81;5011267;28;20046;-44
2023/07/01 08:29:26;;;;;;;10.27;5.35;;;;;;;22.76;62.49;99908.72;5011406;28;20069;-45
2023/07/01 08:31:52;;;;;;;10.75;4.95;;;;;;;22.04;62.15;99905.47;5010965;28;20060;-43
2023/07/01 08:34:19;;;;;;;12.32;5.15;;;;;;;21.46;62.26;99893.25;5011255;28;20050;-44
2023/07/01 08:36:46;;;;;;;12.75;6.05;;;;;;;21.68;62.12;99885.84;5011236;28;20042;-43
2023/07/01 08:39:13;;;;;;;13.98;6.55;;;;;;;22.25;61.01;99885.16;5009158;28;20049;-44
2023/07/01 08:41:45;;;;;;;17.02;7.35;;;;;;;22.62;59.96;99892.16;5010673;28;20111;-44
2023/07/01 08:44:13;;;;;;;15.85;8.70;;;;;;;22.73;58.44;99900.34;5011054;28;20069;-44
2023/07/01 08:46:40;;;;;;;23.60;7.53;;;;;;;22.10;57.65;99895.25;5011219;28;20107;-43
2023/07/01 08:49:09;;;;;;;19.15;8.52;;;;;;;21.33;58.50;99898.00;5010964;28;20504;-44
2023/07/01 08:51:40;;;;;;;15.75;6.93;;;;;;;21.31;58.89;99900.47;5011084;28;20153;-44
2023/07/01 08:54:09;;;;;;;20.50;8.70;;;;;;;21.62;58.14;99898.88;5011638;28;20088;-44
2023/07/01 08:56:36;;;;;;;15.20;7.57;;;;;;;21.45;57.73;99900.09;5011283;28;20085;-45
2023/07/01 08:59:04;;;;;;;18.52;8.30;;;;;;;21.36;57.97;99907.59;5010121;28;20046;-43
2023/07/01 09:01:32;;;;;;;17.65;8.10;;;;;;;21.69;57.08;99909.97;5010160;28;20625;-42
2023/07/01 09:04:00;;;;;;;20.08;8.73;;;;;;;21.96;56.43;99918.16;5009764;28;20049;-45
2023/07/01 09:06:27;;;;;;;20.10;8.82;;;;;;;22.43;55.78;99926.97;5014486;28;20490;-45
2023/07/01 09:08:54;;;;;;;19.85;10.02;;;;;;;23.06;54.87;99915.84;5014502;28;20050;-45
2023/07/01 09:11:22;;;;;;;19.05;8.50;;;;;;;23.56;53.24;99927.19;5014779;28;20054;-45
2023/07/01 09:13:55;;;;;;;23.17;10.10;;;;;;;23.88;52.41;99919.72;5013418;28;20053;-44
2023/07/01 09:16:34;;;;;;;20.77;9.68;;;;;;;24.24;51.88;99908.75;5013944;28;20107;-45
2023/07/01 09:19:06;;;;;;;19.50;10.13;;;;;;;24.63;50.24;99910.94;5014790;28;20104;-45
2023/07/01 09:21:34;;;;;;;18.63;8.77;;;;;;;24.95;49.52;99904.09;5014889;28;20057;-49
2023/07/01 09:24:01;;;;;;;19.92;9.85;;;;;;;25.05;48.32;99917.06;5014559;28;20586;-45
2023/07/01 09:26:30;;;;;;;26.58;12.55;;;;;;;24.92;46.74;99907.84;5014314;28;20058;-43
2023/07/01 09:28:59;;;;;;;19.58;10.82;;;;;;;24.33;47.30;99925.78;4997165;28;20459;-44
2023/07/01 09:31:42;;;;;;;24.15;12.30;;;;;;;23.28;47.92;99933.72;5013373;28;20050;-44
2023/07/01 09:34:09;;;;;;;29.30;11.48;;;;;;;22.50;49.44;99923.97;4999463;28;20073;-44
2023/07/01 09:36:36;;;;;;;20.10;11.68;;;;;;;23.01;49.27;99931.31;4996211;28;20119;-44
2023/07/01 09:39:04;;;;;;;23.92;11.02;;;;;;;23.85;48.01;99931.91;5014244;28;20464;-44
2023/07/01 09:41:31;;;;;;;20.23;11.32;;;;;;;23.95;46.88;99937.22;5014052;28;20042;-44
2023/07/01 09:43:59;;;;;;;24.25;11.00;;;;;;;23.19;47.11;99933.63;5014118;28;20049;-46
2023/07/01 09:46:42;;;;;;;24.88;10.85;;;;;;;22.05;47.98;99929.63;5014380;28;20054;-46
2023/07/01 09:49:10;;;;;;;25.88;11.80;;;;;;;21.36;49.75;99924.50;5014276;28;20054;-44
2023/07/01 09:51:50;;;;;;;25.25;11.07;;;;;;;21.09;50.72;99925.50;5013951;28;20466;-46
2023/07/01 09:54:28;;;;;;;24.52;10.18;;;;;;;20.98;50.57;99919.28;5013754;28;20504;-44
2023/07/01 09:56:59;;;;;;;27.25;11.90;;;;;;;21.20;51.09;99917.59;5009346;28;20041;-44
2023/07/01 09:59:26;;;;;;;22.38;10.25;;;;;;;22.00;49.70;99920.91;5013617;28;20049;-44
2023/07/01 10:01:55;;;;;;;27.75;13.10;;;;;;;22.42;49.16;99917.69;4995738;28;20057;-45
2023/07/01 10:04:28;;;;;;;22.77;11.18;;;;;;;22.48;48.32;99920.78;5013632;28;20049;-44
2023/07/01 10:06:57;;;;;;;31.17;11.98;;;;;;;22.08;48.84;99911.78;5013654;28;20042;-43
2023/07/01 10:09:26;;;;;;;26.23;10.20;;;;;;;22.23;48.72;99921.47;4993942;28;20045;-44
2023/07/01 10:11:57;;;;;;;29.80;11.45;;;;;;;21.76;48.88;99921.06;5013514;28;20057;-43
2023/07/01 10:14:27;;;;;;;27.27;11.75;;;;;;;20.89;49.92;99927.50;5013501;28;20050;-43
2023/07/01 10:16:53;;;;;;;22.00;10.07;;;;;;;20.19;50.85;99934.53;5010785;28;20400;-43
2023/07/01 10:19:31;;;;;;;21.20;10.60;;;;;;;19.68;52.21;99947.06;5012577;28;20045;-43
2023/07/01 10:22:22;;;;;;;31.70;12.30;;;;;;;19.23;52.70;99933.28;5008708;28;20111;-43
2023/07/01 10:25:03;;;;;;;26.57;10.43;;;;;;;18.94;53.72;99934.91;4993813;28;20450;-42
2023/07/01 10:27:42;;;;;;;23.20;10.90;;;;;;;18.73;54.09;99921.97;4995320;28;20310;-45
2023/07/01 10:30:13;;;;;;;28.33;10.30;;;;;;;18.73;54.37;99926.78;5012044;28;20050;-43
2023/07/01 10:32:40;;;;;;;31.00;11.43;;;;;;;19.58;53.38;99931.19;5012325;28;20077;-45
2023/07/01 10:35:09;;;;;;;25.75;12.10;;;;;;;20.46;52.23;99918.38;5012698;28;20050;-43
2023/07/01 10:37:36;;;;;;;27.63;10.82;;;;;;;20.68;51.34;99925.13;5013105;28;20088;-43
2023/07/01 10:40:29;;;;;;;24.08;10.15;;;;;;;20.50;51.70;99930.34;5013172;28;20071;-43
2023/07/01 10:43:14;;;;;;;26.98;10.75;;;;;;;20.19;51.98;99926.91;5012854;28;20046;-44
2023/07/01 10:45:41;;;;;;;27.42;11.18;;;;;;;20.43;52.18;99931.28;5011852;28;20045;-43
2023/07/01 10:48:12;;;;;;;28.25;11.85;;;;;;;20.85;51.72;99931.63;5013141;28;20072;-44
2023/07/01 10:51:05;;;;;;;29.17;10.87;;;;;;;21.19;50.79;99929.28;5012976;28;20124;-43
2023/07/01 10:53:57;;;;;;;23.30;10.20;;;;;;;21.24;50.62;99932.38;4981888;28;20053;-44
2023/07/01 10:56:25;;;;;;;25.08;9.77;;;;;;;21.13;50.53;99943.09;5009534;28;20072;-49
2023/07/01 10:59:16;;;;;;;29.00;10.82;;;;;;;21.10;49.97;99943.94;5012187;28;20038;-43
2023/07/01 11:01:45;;;;;;;28.83;10.90;;;;;;;20.82;50.52;99953.00;5009902;28;20050;-43
2023/07/01 11:04:12;;;;;;;25.10;10.57;;;;;;;20.40;50.55;99963.06;5012482;28;20053;-45
2023/07/01 11:06:52;;;;;;;27.60;10.73;;;;;;;19.96;51.43;99964.22;5012542;28;20041;-46
2023/07/01 11:09:32;;;;;;;28.00;10.82;;;;;;;19.58;52.67;99951.63;5011424;28;20136;-43
2023/07/01 11:12:02;;;;;;;29.42;10.90;;;;;;;19.52;53.59;99944.91;5011648;28;20066;-43
2023/07/01 11:14:38;;;;;;;32.05;11.40;;;;;;;19.77;53.12;99950.94;5012482;28;20037;-43
2023/07/01 11:17:15;;;;;;;26.60;10.68;;;;;;;20.03;52.92;99938.84;4993916;28;20411;-43
2023/07/01 11:19:46;;;;;;;26.55;10.60;;;;;;;20.23;53.18;99940.88;5012655;28;20084;-43
2023/07/01 11:22:16;;;;;;;24.77;10.57;;;;;;;20.48;52.76;99955.28;5008037;28;20048;-44
2023/07/01 11:24:43;;;;;;;23.98;10.27;;;;;;;20.83;52.51;99953.78;5008518;28;20493;-44
2023/07/01 11:27:11;;;;;;;24.00;10.85;;;;;;;20.99;51.12;99934.94;5009423;28;20136;-43
2023/07/01 11:29:41;;;;;;;23.05;10.20;;;;;;;20.94;50.53;99954.38;5002191;28;20562;-44
2023/07/01 11:32:13;;;;;;;22.08;9.30;;;;;;;20.86;50.61;99967.78;5008099;28;20041;-44
2023/07/01 11:34:41;;;;;;;25.95;10.20;;;;;;;20.69;50.54;99952.06;4982052;28;20056;-45
2023/07/01 11:37:08;;;;;;;24.75;9.77;;;;;;;20.52;50.67;99958.81;5007174;28;20053;-45
2023/07/01 11:39:44;;;;;;;25.77;10.15;;;;;;;20.49;50.58;99965.31;4974864;28;20090;-46